Time;durP1;ratioP1;P1;durP2;ratioP2;P2;SDS_P1;SDS_P2;PMS_P1;PMS_P2;Temp;Humidity;BMP_temperature;BMP_pressure;BME280_temperature;BME280_humidity;BME280_pressure;Samples;Min_cycle;Max_cycle;Signal;HPM_P1;HPM_P2
2021/11/07 00:01:41;;;;;;;303.13;49.97;;;10.30;99.90;;;;;;5093988;28;21052;-72
2021/11/07 00:04:22;;;;;;;227.77;47.93;;;10.20;99.90;;;;;;5094495;28;20510;-72
2021/11/07 00:06:53;;;;;;;139.40;38.00;;;10.20;99.90;;;;;;5093895;28;20968;-73
2021/11/07 00:09:27;;;;;;;194.77;47.00;;;10.20;99.90;;;;;;5095697;28;20412;-73
2021/11/07 00:11:57;;;;;;;155.90;32.53;;;10.20;99.90;;;;;;5093624;28;20519;-74
2021/11/07 00:14:27;;;;;;;193.30;46.40;;;10.20;99.90;;;;;;5093786;28;20455;-74
2021/11/07 00:16:56;;;;;;;191.60;49.60;;;10.20;99.90;;;;;;5094849;28;20525;-74
2021/11/07 00:19:31;;;;;;;253.67;50.67;;;10.20;99.90;;;;;;5087244;28;21053;-74
2021/11/07 00:22:06;;;;;;;149.70;30.13;;;10.20;99.90;;;;;;5082519;28;20464;-73
2021/11/07 00:24:40;;;;;;;190.33;37.80;;;10.20;99.90;;;;;;5083873;28;20502;-73
2021/11/07 00:27:19;;;;;;;146.33;39.80;;;10.20;99.90;;;;;;5090912;28;20792;-74
2021/11/07 00:29:51;;;;;;;155.60;38.27;;;10.20;99.90;;;;;;5094500;28;20471;-74
2021/11/07 00:32:25;;;;;;;250.57;48.07;;;10.20;99.90;;;;;;5094644;28;20421;-74
2021/11/07 00:37:46;;;;;;;193.13;43.87;;;10.20;99.90;;;;;;5027818;28;20464;-74
2021/11/07 00:40:23;;;;;;;280.67;47.27;;;10.20;99.90;;;;;;5052916;28;20561;-74
2021/11/07 00:42:58;;;;;;;247.43;46.67;;;10.20;99.90;;;;;;5053981;28;20950;-73
2021/11/07 00:45:36;;;;;;;188.73;42.87;;;10.10;99.90;;;;;;5055494;28;20443;-74
2021/11/07 00:50:56;;;;;;;138.17;30.13;;;10.10;99.90;;;;;;5079944;28;20518;-74
2021/11/07 00:53:53;;;;;;;235.90;40.80;;;10.20;99.90;;;;;;5076828;28;20960;-74
2021/11/07 00:56:33;;;;;;;132.00;33.50;;;10.10;99.90;;;;;;5074556;28;20433;-73
2021/11/07 00:59:16;;;;;;;136.30;31.40;;;10.20;99.90;;;;;;5072613;28;20437;-74
2021/11/07 01:01:47;;;;;;;227.33;34.97;;;10.20;99.90;;;;;;5072521;28;20501;-74
2021/11/07 01:04:16;;;;;;;204.47;38.43;;;10.10;99.90;;;;;;5074633;28;20452;-74
2021/11/07 01:06:45;;;;;;;193.40;38.87;;;10.20;99.90;;;;;;5081212;28;20480;-74
2021/11/07 01:09:14;;;;;;;96.70;26.33;;;10.10;99.90;;;;;;5072922;28;20492;-74
2021/11/07 01:11:44;;;;;;;220.90;44.80;;;10.20;99.90;;;;;;5073800;28;20473;-74
2021/11/07 01:14:13;;;;;;;111.13;30.47;;;10.20;99.90;;;;;;5073566;28;20449;-74
2021/11/07 01:16:42;;;;;;;142.30;35.67;;;10.20;99.90;;;;;;5073513;28;20919;-74
2021/11/07 01:19:11;;;;;;;226.00;37.83;;;10.20;99.90;;;;;;5074168;28;20998;-74
2021/11/07 01:21:42;;;;;;;240.53;41.40;;;10.20;99.90;;;;;;5072139;28;20884;-74
2021/11/07 01:24:15;;;;;;;169.53;30.67;;;10.20;99.90;;;;;;5077797;28;20486;-74
2021/11/07 01:26:47;;;;;;;194.07;48.03;;;10.20;99.90;;;;;;5079881;28;20456;-74
2021/11/07 01:29:18;;;;;;;160.23;43.80;;;10.20;99.90;;;;;;5072341;28;20842;-74
2021/11/07 01:31:48;;;;;;;280.47;48.10;;;10.20;99.90;;;;;;5073277;28;21058;-74
2021/11/07 01:34:23;;;;;;;70.23;18.23;;;10.20;99.90;;;;;;5073405;28;20531;-74
2021/11/07 01:36:56;;;;;;;150.33;37.00;;;10.20;99.90;;;;;;5071839;28;21012;-74
2021/11/07 01:39:35;;;;;;;170.50;42.73;;;10.20;99.90;;;;;;5073611;28;20520;-74
2021/11/07 01:42:09;;;;;;;219.37;40.50;;;10.20;99.90;;;;;;5088177;28;20468;-74
2021/11/07 01:44:41;;;;;;;199.43;32.37;;;10.20;99.90;;;;;;5093475;28;20444;-74
2021/11/07 01:47:10;;;;;;;167.53;34.30;;;10.20;99.90;;;;;;5079788;28;20441;-74
2021/11/07 01:49:41;;;;;;;282.87;37.30;;;10.20;99.90;;;;;;5071962;28;20433;-74
2021/11/07 01:52:11;;;;;;;270.83;44.80;;;10.20;99.90;;;;;;5074115;28;20465;-74
2021/11/07 01:54:49;;;;;;;162.20;31.87;;;10.20;99.90;;;;;;5073150;28;20437;-74
2021/11/07 01:57:21;;;;;;;257.13;48.10;;;10.20;99.90;;;;;;5085073;28;20444;-73
2021/11/07 01:59:52;;;;;;;231.63;42.30;;;10.20;99.90;;;;;;5084335;28;20491;-73
2021/11/07 02:02:22;;;;;;;141.47;32.83;;;10.20;99.90;;;;;;5073150;28;20446;-73
2021/11/07 02:04:51;;;;;;;219.67;37.73;;;10.20;99.90;;;;;;5071856;28;20429;-73
2021/11/07 02:07:19;;;;;;;164.13;36.40;;;10.20;99.90;;;;;;5072048;28;20464;-73
2021/11/07 02:09:48;;;;;;;149.40;36.00;;;10.20;99.90;;;;;;5089807;28;20497;-73
2021/11/07 02:12:17;;;;;;;216.00;40.70;;;10.20;99.90;;;;;;5091784;28;20468;-73
2021/11/07 02:14:46;;;;;;;152.90;39.00;;;10.20;99.90;;;;;;5093792;28;20432;-73
2021/11/07 02:17:15;;;;;;;242.80;46.50;;;10.20;99.90;;;;;;5093414;28;20540;-74
2021/11/07 02:19:47;;;;;;;315.90;59.20;;;10.20;99.90;;;;;;5070855;28;20913;-73
2021/11/07 02:22:17;;;;;;;282.57;63.70;;;10.20;99.90;;;;;;5092181;28;20440;-74
2021/11/07 02:24:45;;;;;;;112.50;33.70;;;10.20;99.90;;;;;;5092563;28;20528;-74
2021/11/07 02:27:14;;;;;;;179.17;37.17;;;10.20;99.90;;;;;;5096439;28;20439;-73
2021/11/07 02:29:42;;;;;;;208.63;41.97;;;10.20;99.90;;;;;;5081018;28;20445;-73
2021/11/07 02:32:10;;;;;;;172.97;34.73;;;10.20;99.90;;;;;;5076796;28;20848;-73
2021/11/07 02:34:38;;;;;;;127.87;25.63;;;10.20;99.90;;;;;;5076869;28;20441;-73
2021/11/07 02:37:07;;;;;;;197.50;35.33;;;10.20;99.90;;;;;;5076776;28;20444;-74
2021/11/07 02:39:37;;;;;;;139.00;21.73;;;10.20;99.90;;;;;;5076803;28;20494;-73
2021/11/07 02:42:06;;;;;;;157.83;30.47;;;10.20;99.90;;;;;;5076659;28;20449;-73
2021/11/07 02:44:37;;;;;;;137.77;27.33;;;10.20;99.90;;;;;;5076443;28;20477;-73
2021/11/07 02:47:06;;;;;;;197.77;42.23;;;10.20;99.90;;;;;;5077486;28;20496;-74
2021/11/07 02:49:36;;;;;;;92.53;21.57;;;10.20;99.90;;;;;;5093553;28;20444;-73
2021/11/07 02:52:06;;;;;;;223.87;39.30;;;10.20;99.90;;;;;;5095122;28;20571;-73
2021/11/07 02:54:36;;;;;;;161.90;24.13;;;10.20;99.90;;;;;;5096867;28;20452;-73
2021/11/07 02:57:07;;;;;;;144.87;30.73;;;10.20;99.90;;;;;;5096824;28;20448;-73
2021/11/07 02:59:38;;;;;;;133.17;32.80;;;10.20;99.90;;;;;;5093819;28;20965;-73
2021/11/07 03:02:07;;;;;;;196.27;41.87;;;10.20;99.90;;;;;;5076563;28;20461;-73
2021/11/07 03:04:35;;;;;;;137.10;41.23;;;10.30;99.90;;;;;;5076054;28;20429;-73
2021/11/07 03:07:05;;;;;;;172.07;42.77;;;10.30;99.90;;;;;;5074740;28;20528;-73
2021/11/07 03:09:38;;;;;;;196.50;51.47;;;10.30;99.90;;;;;;5075588;28;20475;-73
2021/11/07 03:12:10;;;;;;;119.13;32.87;;;10.30;99.90;;;;;;5082190;28;20468;-73
2021/11/07 03:14:41;;;;;;;211.07;45.23;;;10.30;99.90;;;;;;5074667;28;20484;-73
2021/11/07 03:17:11;;;;;;;214.73;44.87;;;10.30;99.90;;;;;;5076240;28;20479;-73
2021/11/07 03:19:40;;;;;;;224.83;48.67;;;10.30;99.90;;;;;;5082329;28;20467;-73
2021/11/07 03:22:10;;;;;;;217.20;50.03;;;10.30;99.90;;;;;;5078763;28;20476;-73
2021/11/07 03:24:41;;;;;;;157.53;44.93;;;10.30;99.90;;;;;;5075647;28;20440;-73
2021/11/07 03:27:15;;;;;;;178.33;42.70;;;10.40;99.90;;;;;;5075904;28;20449;-73
2021/11/07 03:29:49;;;;;;;211.53;43.37;;;10.30;99.90;;;;;;5076033;28;20840;-73
2021/11/07 03:32:20;;;;;;;160.30;42.37;;;10.30;99.90;;;;;;5075872;28;20544;-73
2021/11/07 03:34:51;;;;;;;182.63;49.00;;;10.40;99.90;;;;;;5074872;28;20468;-73
2021/11/07 03:37:23;;;;;;;130.23;33.20;;;10.40;99.90;;;;;;5083070;28;20532;-73
2021/11/07 03:39:53;;;;;;;251.00;53.17;;;10.40;99.90;;;;;;5076236;28;20410;-73
2021/11/07 03:42:24;;;;;;;312.20;53.63;;;10.40;99.90;;;;;;5075176;28;20471;-73
2021/11/07 03:44:54;;;;;;;174.30;37.27;;;10.40;99.90;;;;;;5075669;28;20418;-73
2021/11/07 03:47:22;;;;;;;126.93;36.50;;;10.40;99.90;;;;;;5075257;28;20436;-73
2021/11/07 03:49:51;;;;;;;114.60;36.50;;;10.40;99.90;;;;;;5075056;28;20453;-73
2021/11/07 03:52:19;;;;;;;124.87;27.93;;;10.50;99.90;;;;;;5082029;28;20464;-73
2021/11/07 03:54:48;;;;;;;225.30;51.00;;;10.50;99.90;;;;;;5082588;28;20973;-73
2021/11/07 03:57:16;;;;;;;141.03;39.33;;;10.50;99.90;;;;;;5093716;28;20483;-73
2021/11/07 03:59:49;;;;;;;243.67;58.53;;;10.50;99.90;;;;;;5095538;28;20435;-73
2021/11/07 04:02:17;;;;;;;182.77;47.47;;;10.50;99.90;;;;;;5095274;28;20433;-73
2021/11/07 04:04:46;;;;;;;192.90;53.27;;;10.50;99.90;;;;;;5095240;28;20959;-72
2021/11/07 04:07:14;;;;;;;236.13;62.87;;;10.50;99.90;;;;;;5095674;28;20436;-73
2021/11/07 04:09:43;;;;;;;165.90;42.10;;;10.50;99.90;;;;;;5095413;28;20432;-73
2021/11/07 04:12:11;;;;;;;231.10;52.03;;;10.50;99.90;;;;;;5095169;28;20514;-73
2021/11/07 04:14:39;;;;;;;187.73;47.27;;;10.50;99.90;;;;;;5093721;28;20558;-74
2021/11/07 04:17:09;;;;;;;215.87;58.00;;;10.50;99.90;;;;;;5083786;28;20471;-74
2021/11/07 04:19:37;;;;;;;136.90;45.43;;;10.50;99.90;;;;;;5075036;28;20437;-73
2021/11/07 04:22:08;;;;;;;137.37;41.30;;;10.50;99.90;;;;;;5089803;28;20563;-73
2021/11/07 04:24:37;;;;;;;196.73;42.33;;;10.50;99.90;;;;;;5095426;28;20508;-73
2021/11/07 04:27:06;;;;;;;192.80;43.97;;;10.50;99.90;;;;;;5095051;28;20535;-73
2021/11/07 04:29:34;;;;;;;217.13;48.80;;;10.50;99.90;;;;;;5093424;28;20476;-74
2021/11/07 04:32:04;;;;;;;125.40;43.67;;;10.50;99.90;;;;;;5093249;28;20503;-74
2021/11/07 04:34:33;;;;;;;87.77;29.83;;;10.50;99.90;;;;;;5094990;28;20432;-73
2021/11/07 04:37:03;;;;;;;246.03;44.23;;;10.50;99.90;;;;;;5090343;28;20846;-72
2021/11/07 04:39:32;;;;;;;253.40;46.73;;;10.60;99.90;;;;;;5086048;28;21051;-73
2021/11/07 04:42:00;;;;;;;219.37;60.90;;;10.60;99.90;;;;;;5090125;28;20491;-74
2021/11/07 04:44:30;;;;;;;136.83;41.47;;;10.60;99.90;;;;;;5093283;28;20539;-74
2021/11/07 04:47:01;;;;;;;297.37;56.87;;;10.60;99.90;;;;;;5094841;28;20940;-74
2021/11/07 04:49:29;;;;;;;215.43;34.40;;;10.60;99.90;;;;;;5094188;28;20424;-74
2021/11/07 04:51:59;;;;;;;206.60;61.80;;;10.60;99.90;;;;;;5092931;28;20501;-73
2021/11/07 04:54:28;;;;;;;153.77;41.97;;;10.60;99.90;;;;;;5094170;28;20976;-73
2021/11/07 04:56:57;;;;;;;195.77;49.23;;;10.60;99.90;;;;;;5079992;28;20461;-73
2021/11/07 04:59:26;;;;;;;210.03;51.07;;;10.60;99.90;;;;;;5073829;28;20441;-73
2021/11/07 05:01:55;;;;;;;170.27;40.50;;;10.60;99.90;;;;;;5072061;28;20488;-73
2021/11/07 05:04:24;;;;;;;203.83;46.37;;;10.60;99.90;;;;;;5072498;28;20536;-74
2021/11/07 05:06:53;;;;;;;270.53;56.53;;;10.60;99.90;;;;;;5076344;28;20451;-73
2021/11/07 05:09:22;;;;;;;170.40;45.73;;;10.60;99.90;;;;;;5091426;28;20448;-74
2021/11/07 05:11:51;;;;;;;224.90;47.60;;;10.60;99.90;;;;;;5092498;28;20460;-73
2021/11/07 05:14:19;;;;;;;217.70;38.90;;;10.60;99.90;;;;;;5092488;28;20947;-73
2021/11/07 05:16:48;;;;;;;183.57;35.90;;;10.60;99.90;;;;;;5093831;28;20459;-73
2021/11/07 05:19:16;;;;;;;210.87;38.13;;;10.60;99.90;;;;;;5093974;28;20455;-73
2021/11/07 05:21:45;;;;;;;255.27;47.00;;;10.60;99.90;;;;;;5079007;28;20495;-74
2021/11/07 05:24:13;;;;;;;240.87;34.27;;;10.60;99.90;;;;;;5080991;28;20449;-73
2021/11/07 05:26:43;;;;;;;261.10;39.37;;;10.60;99.90;;;;;;5094548;28;20473;-73
2021/11/07 05:29:11;;;;;;;159.23;23.63;;;10.50;99.90;;;;;;5092376;28;20578;-73
2021/11/07 05:31:39;;;;;;;195.73;33.13;;;10.50;99.90;;;;;;5093538;28;20456;-73
2021/11/07 05:34:07;;;;;;;236.37;33.57;;;10.40;99.90;;;;;;5094091;28;20471;-73
2021/11/07 05:36:37;;;;;;;355.03;44.17;;;10.40;99.90;;;;;;5093542;28;20535;-73
2021/11/07 05:39:05;;;;;;;264.97;33.73;;;10.30;99.90;;;;;;5092264;28;20967;-73
2021/11/07 05:41:34;;;;;;;231.53;35.17;;;10.30;99.90;;;;;;5087624;28;20873;-73
2021/11/07 05:44:04;;;;;;;112.37;29.37;;;10.30;99.90;;;;;;5093542;28;20446;-74
2021/11/07 05:46:32;;;;;;;218.57;37.30;;;10.20;99.90;;;;;;5077733;28;20506;-74
2021/11/07 05:49:02;;;;;;;268.73;39.37;;;10.30;99.90;;;;;;5072024;28;20822;-74
2021/11/07 05:51:31;;;;;;;202.20;39.43;;;10.30;99.90;;;;;;5085696;28;21026;-74
2021/11/07 05:54:00;;;;;;;227.43;39.77;;;10.30;99.90;;;;;;5092028;28;20559;-74
2021/11/07 05:56:28;;;;;;;109.23;27.00;;;10.30;99.90;;;;;;5093517;28;20436;-74
2021/11/07 05:58:56;;;;;;;146.23;26.43;;;10.30;99.90;;;;;;5093513;28;20439;-74
2021/11/07 06:01:26;;;;;;;166.40;31.07;;;10.30;99.90;;;;;;5094465;28;20495;-73
2021/11/07 06:03:54;;;;;;;259.40;43.03;;;10.30;99.90;;;;;;5088754;28;20436;-73
2021/11/07 06:06:22;;;;;;;217.87;47.43;;;10.30;99.90;;;;;;5091917;28;20475;-73
2021/11/07 06:08:53;;;;;;;169.87;24.30;;;10.30;99.90;;;;;;5096534;28;20543;-73
2021/11/07 06:11:21;;;;;;;221.40;29.70;;;10.30;99.90;;;;;;5087227;28;20556;-73
2021/11/07 06:13:50;;;;;;;214.20;37.40;;;10.30;99.90;;;;;;5077332;28;20559;-73
2021/11/07 06:16:18;;;;;;;122.67;30.13;;;10.30;99.90;;;;;;5077413;28;20436;-73
2021/11/07 06:18:48;;;;;;;253.87;34.90;;;10.30;99.90;;;;;;5077910;28;20437;-73
2021/11/07 06:21:16;;;;;;;172.03;25.77;;;10.20;99.90;;;;;;5088664;28;21021;-73
2021/11/07 06:23:47;;;;;;;275.73;39.10;;;10.20;99.90;;;;;;5097633;28;20430;-73
2021/11/07 06:26:15;;;;;;;118.17;18.27;;;10.20;99.90;;;;;;5094900;28;20500;-73
2021/11/07 06:28:43;;;;;;;165.23;21.17;;;10.10;99.90;;;;;;5084454;28;20447;-73
2021/11/07 06:31:12;;;;;;;230.03;33.90;;;10.10;99.90;;;;;;5077213;28;20506;-73
2021/11/07 06:33:40;;;;;;;270.40;28.87;;;10.10;99.90;;;;;;5075845;28;20518;-73
2021/11/07 06:36:10;;;;;;;270.43;35.87;;;10.00;99.90;;;;;;5075780;28;20444;-73
2021/11/07 06:38:38;;;;;;;217.07;26.57;;;10.00;99.90;;;;;;5077112;28;20535;-73
2021/11/07 06:41:07;;;;;;;115.37;26.50;;;10.00;99.90;;;;;;5084210;28;20489;-73
2021/11/07 06:43:36;;;;;;;207.50;31.80;;;9.90;99.90;;;;;;5079338;28;20460;-73
2021/11/07 06:46:04;;;;;;;192.50;27.33;;;9.90;99.90;;;;;;5077519;28;20444;-72
2021/11/07 06:48:32;;;;;;;146.97;26.27;;;9.90;99.90;;;;;;5091155;28;20543;-73
2021/11/07 06:51:01;;;;;;;156.50;27.37;;;9.90;99.90;;;;;;5097007;28;20490;-73
2021/11/07 06:53:30;;;;;;;194.70;32.77;;;9.80;99.90;;;;;;5096998;28;20531;-73
2021/11/07 06:55:59;;;;;;;126.17;39.70;;;9.80;99.90;;;;;;5097642;28;20460;-73
2021/11/07 06:58:27;;;;;;;205.33;33.73;;;9.80;99.90;;;;;;5097041;28;20459;-74
2021/11/07 07:00:55;;;;;;;272.30;38.57;;;9.80;99.90;;;;;;5095624;28;20509;-73
2021/11/07 07:03:23;;;;;;;196.80;35.07;;;9.80;99.90;;;;;;5080104;28;20452;-73
2021/11/07 07:05:52;;;;;;;158.73;30.63;;;9.80;99.90;;;;;;5080826;28;20460;-73
2021/11/07 07:08:25;;;;;;;182.33;24.63;;;9.80;99.90;;;;;;5077656;28;20468;-73
2021/11/07 07:11:01;;;;;;;126.43;22.33;;;9.80;99.90;;;;;;5090370;28;20477;-74
2021/11/07 07:13:35;;;;;;;279.57;46.77;;;9.80;99.90;;;;;;5096613;28;20448;-73
2021/11/07 07:16:15;;;;;;;141.03;18.97;;;9.80;99.90;;;;;;5096398;28;20503;-73
2021/11/07 07:18:53;;;;;;;220.10;32.17;;;9.80;99.90;;;;;;5096656;28;20421;-74
2021/11/07 07:21:33;;;;;;;180.00;25.90;;;9.90;99.90;;;;;;5096282;28;20547;-74
2021/11/07 07:27:03;;;;;;;176.07;30.70;;;9.80;99.90;;;;;;5095016;28;20448;-74
2021/11/07 07:29:55;;;;;;;133.60;37.53;;;9.90;99.90;;;;;;5094835;28;20818;-74
2021/11/07 07:32:41;;;;;;;108.80;22.23;;;9.90;99.90;;;;;;5094737;28;20448;-74
2021/11/07 07:35:11;;;;;;;190.87;27.80;;;9.90;99.90;;;;;;5096062;28;20459;-75
2021/11/07 07:37:40;;;;;;;234.83;25.60;;;9.90;99.90;;;;;;5094799;28;20448;-74
2021/11/07 07:40:10;;;;;;;170.00;23.17;;;9.90;99.90;;;;;;5079330;28;20480;-75
2021/11/07 07:42:40;;;;;;;292.77;43.77;;;9.90;99.90;;;;;;5075372;28;20522;-75
2021/11/07 07:45:08;;;;;;;156.80;22.67;;;9.90;99.90;;;;;;5089815;28;20453;-74
2021/11/07 07:47:37;;;;;;;143.00;19.67;;;9.90;99.90;;;;;;5091700;28;20443;-75
2021/11/07 07:50:06;;;;;;;283.87;41.87;;;9.90;99.90;;;;;;5074019;28;20539;-74
2021/11/07 07:52:34;;;;;;;199.07;18.93;;;9.90;99.90;;;;;;5074051;28;20495;-74
2021/11/07 07:55:08;;;;;;;203.53;29.67;;;9.90;99.90;;;;;;5075448;28;20469;-74
2021/11/07 07:57:36;;;;;;;304.07;31.50;;;9.90;99.90;;;;;;5075216;28;20422;-74
2021/11/07 08:00:08;;;;;;;247.87;30.23;;;9.90;99.90;;;;;;5073712;28;20438;-74
2021/11/07 08:02:40;;;;;;;165.00;24.57;;;9.90;99.90;;;;;;5075237;28;20413;-74
2021/11/07 08:05:09;;;;;;;228.40;39.07;;;9.90;99.90;;;;;;5074929;28;20484;-74
2021/11/07 08:07:37;;;;;;;155.23;21.60;;;9.90;99.90;;;;;;5078849;28;20438;-73
2021/11/07 08:10:06;;;;;;;271.40;33.47;;;9.90;99.90;;;;;;5073417;28;20452;-74
2021/11/07 08:12:35;;;;;;;256.63;41.73;;;10.00;99.90;;;;;;5075254;28;20465;-73
2021/11/07 08:15:03;;;;;;;220.70;18.00;;;10.00;99.90;;;;;;5075356;28;20475;-73
2021/11/07 08:17:33;;;;;;;288.97;29.50;;;10.00;99.90;;;;;;5074161;28;20958;-74
2021/11/07 08:20:04;;;;;;;429.40;47.67;;;10.00;99.90;;;;;;5073889;28;20697;-74
2021/11/07 08:22:32;;;;;;;276.43;40.57;;;10.00;99.90;;;;;;5083829;28;20436;-74
2021/11/07 08:25:09;;;;;;;210.50;37.77;;;10.00;99.90;;;;;;5094868;28;20812;-73
2021/11/07 08:27:37;;;;;;;205.67;39.87;;;10.00;99.90;;;;;;5085089;28;20448;-74
2021/11/07 08:30:07;;;;;;;260.17;38.37;;;10.10;99.90;;;;;;5093933;28;20870;-73
2021/11/07 08:32:36;;;;;;;310.83;47.57;;;10.10;99.90;;;;;;5093770;28;20487;-74
2021/11/07 08:35:06;;;;;;;248.83;41.10;;;10.10;99.90;;;;;;5093761;28;20491;-73
2021/11/07 08:37:37;;;;;;;307.40;37.53;;;10.10;99.90;;;;;;5095171;28;21036;-74
2021/11/07 08:40:09;;;;;;;333.07;40.30;;;10.10;99.90;;;;;;5093889;28;20486;-74
2021/11/07 08:42:41;;;;;;;271.70;36.23;;;10.10;99.90;;;;;;5080876;28;20485;-74
2021/11/07 09:02:02;;;;;;;436.93;47.47;;;10.40;99.90;;;;;;5093375;28;20491;-74
2021/11/07 09:04:41;;;;;;;291.83;40.30;;;10.40;99.90;;;;;;5078735;28;20506;-74
2021/11/07 09:07:17;;;;;;;453.07;53.43;;;10.30;99.90;;;;;;5088324;28;20466;-74
2021/11/07 09:09:46;;;;;;;239.40;47.40;;;10.30;99.90;;;;;;5072476;28;20524;-74
2021/11/07 09:12:14;;;;;;;278.27;41.07;;;10.30;99.90;;;;;;5072358;28;20480;-74
2021/11/07 09:14:43;;;;;;;304.20;50.20;;;10.30;99.90;;;;;;5082828;28;20464;-75
2021/11/07 09:17:15;;;;;;;401.47;45.27;;;10.40;99.90;;;;;;5092629;28;20452;-75
2021/11/07 09:19:47;;;;;;;379.87;58.73;;;10.40;99.90;;;;;;5052544;28;20461;-75
2021/11/07 09:22:19;;;;;;;339.63;46.90;;;10.40;99.90;;;;;;5064732;28;20459;-75
2021/11/07 09:24:51;;;;;;;389.93;40.23;;;10.50;99.90;;;;;;5094064;28;20444;-74
2021/11/07 09:27:23;;;;;;;377.87;60.23;;;10.50;99.90;;;;;;5093285;28;20437;-74
2021/11/07 09:29:58;;;;;;;292.97;41.00;;;10.60;99.90;;;;;;5093933;28;20435;-74
2021/11/07 09:32:38;;;;;;;299.10;34.57;;;10.70;99.90;;;;;;5078008;28;20534;-75
2021/11/07 09:37:54;;;;;;;245.37;35.93;;;10.90;99.90;;;;;;5085011;28;20487;-74
2021/11/07 09:40:25;;;;;;;329.37;47.47;;;10.90;99.90;;;;;;5092087;28;20491;-75
2021/11/07 09:45:47;;;;;;;377.20;53.93;;;10.90;99.90;;;;;;5050395;28;20454;-75
2021/11/07 09:48:20;;;;;;;363.33;41.50;;;10.90;99.90;;;;;;5053510;28;20450;-74
2021/11/07 09:50:52;;;;;;;232.57;54.53;;;10.90;99.90;;;;;;5065536;28;20546;-74
2021/11/07 09:53:20;;;;;;;364.73;54.73;;;10.90;99.90;;;;;;5094030;28;20433;-75
2021/11/07 09:55:49;;;;;;;303.20;34.80;;;10.80;99.90;;;;;;5077462;28;20469;-75
2021/11/07 09:58:17;;;;;;;391.87;55.87;;;10.80;99.90;;;;;;5072168;28;20945;-75
2021/11/07 10:00:50;;;;;;;380.03;47.07;;;10.80;99.90;;;;;;5073177;28;20475;-72
2021/11/07 10:03:20;;;;;;;395.63;38.53;;;10.70;99.90;;;;;;5089204;28;20888;-73
2021/11/07 10:05:53;;;;;;;439.27;38.83;;;10.70;99.90;;;;;;5085816;28;20997;-73
2021/11/07 10:08:24;;;;;;;195.77;30.00;;;10.80;99.90;;;;;;5088579;28;20485;-73
2021/11/07 10:11:00;;;;;;;332.77;45.60;;;10.80;99.90;;;;;;5090641;28;20456;-73
2021/11/07 10:13:29;;;;;;;275.93;28.93;;;10.80;99.90;;;;;;5072112;28;20429;-73
2021/11/07 10:16:03;;;;;;;278.50;38.70;;;10.80;99.90;;;;;;5071826;28;20461;-73
2021/11/07 10:18:37;;;;;;;230.10;36.67;;;10.80;99.90;;;;;;5073427;28;20464;-73
2021/11/07 10:21:18;;;;;;;339.47;47.87;;;10.80;99.90;;;;;;5073250;28;21000;-73
2021/11/07 10:23:50;;;;;;;481.27;86.97;;;10.90;99.90;;;;;;5082975;28;20482;-73
2021/11/07 10:26:21;;;;;;;326.00;66.20;;;11.00;99.90;;;;;;5089413;28;20494;-73
2021/11/07 10:28:53;;;;;;;547.83;63.10;;;11.00;99.90;;;;;;5091893;28;20440;-73
2021/11/07 10:31:28;;;;;;;535.13;68.67;;;11.10;99.90;;;;;;5092033;28;20464;-73
2021/11/07 10:34:15;;;;;;;296.47;40.67;;;11.10;99.90;;;;;;5091787;28;20935;-73
2021/11/07 10:37:16;;;;;;;449.13;54.97;;;11.10;99.90;;;;;;5076586;28;20909;-73
2021/11/07 10:40:01;;;;;;;502.90;66.00;;;11.20;99.90;;;;;;5071621;28;20441;-73
2021/11/07 10:42:47;;;;;;;1813.30;185.37;;;11.20;99.90;;;;;;5071246;28;20460;-74
2021/11/07 10:45:22;;;;;;;439.47;75.90;;;11.20;99.90;;;;;;5071967;28;20479;-73
2021/11/07 10:48:19;;;;;;;566.27;68.60;;;11.20;99.90;;;;;;5074163;28;20528;-74
2021/11/07 10:53:44;;;;;;;442.10;63.10;;;11.20;99.90;;;;;;5096614;28;20925;-73
2021/11/07 10:56:13;;;;;;;364.63;47.87;;;11.10;99.90;;;;;;5095173;28;21011;-74
2021/11/07 10:58:46;;;;;;;358.93;46.10;;;11.20;99.90;;;;;;5095330;28;20890;-73
2021/11/07 11:01:19;;;;;;;492.87;44.73;;;11.20;99.90;;;;;;5096465;28;20973;-73
2021/11/07 11:03:49;;;;;;;511.10;73.50;;;11.30;99.90;;;;;;5080093;28;20485;-74
2021/11/07 11:06:18;;;;;;;594.83;93.43;;;11.30;99.90;;;;;;5086872;28;20767;-73
2021/11/07 11:08:54;;;;;;;394.93;52.27;;;11.40;99.90;;;;;;5079160;28;20531;-73
2021/11/07 11:11:27;;;;;;;449.33;92.37;;;11.40;99.90;;;;;;5076244;28;20487;-74
2021/11/07 11:14:07;;;;;;;233.20;27.40;;;11.40;99.90;;;;;;5076268;28;20936;-74
2021/11/07 11:16:43;;;;;;;483.27;97.07;;;11.40;99.90;;;;;;5074616;28;20915;-74
2021/11/07 11:19:29;;;;;;;404.17;73.33;;;11.40;99.90;;;;;;5075791;28;20928;-74
2021/11/07 11:28:03;;;;;;;415.83;75.50;;;11.50;99.90;;;;;;5088560;28;20969;-74
2021/11/07 11:30:47;;;;;;;487.17;96.27;;;11.50;99.90;;;;;;5096178;28;21014;-73
2021/11/07 11:33:20;;;;;;;440.20;89.30;;;11.50;99.90;;;;;;5096235;28;20823;-74
2021/11/07 11:35:55;;;;;;;167.87;30.43;;;11.40;99.90;;;;;;5088615;28;20445;-74
2021/11/07 11:38:28;;;;;;;429.60;77.13;;;11.40;99.90;;;;;;5076516;28;20468;-74
2021/11/07 11:41:05;;;;;;;421.03;64.33;;;11.40;99.90;;;;;;5074096;28;21063;-74
2021/11/07 11:43:36;;;;;;;389.43;66.50;;;11.30;99.90;;;;;;5075340;28;20543;-74
2021/11/07 11:46:13;;;;;;;422.60;56.67;;;11.40;99.90;;;;;;5074152;28;20461;-73
2021/11/07 11:54:41;;;;;;;454.40;67.47;;;11.40;99.90;;;;;;5076641;28;20614;-74
2021/11/07 11:57:37;;;;;;;390.40;59.13;;;11.50;99.90;;;;;;5075454;28;20457;-74
2021/11/07 12:03:09;;;;;;;325.43;61.50;;;11.50;99.90;;;;;;5075372;28;20456;-74
2021/11/07 12:05:41;;;;;;;188.80;26.93;;;11.50;99.90;;;;;;5073762;28;20433;-74
2021/11/07 12:08:26;;;;;;;460.47;89.37;;;11.50;99.90;;;;;;5080219;28;20480;-74
2021/11/07 12:11:18;;;;;;;429.40;78.53;;;11.50;99.90;;;;;;5095528;28;20505;-74
2021/11/07 12:13:51;;;;;;;68.33;18.37;;;11.50;99.90;;;;;;5095415;28;20463;-74
2021/11/07 12:16:46;;;;;;;724.23;102.33;;;11.50;99.90;;;;;;5095237;28;20452;-74
2021/11/07 12:19:17;;;;;;;672.33;87.00;;;11.50;99.90;;;;;;5093683;28;20531;-74
2021/11/07 12:22:07;;;;;;;383.43;73.97;;;11.60;99.90;;;;;;5090791;28;20839;-74
2021/11/07 12:24:39;;;;;;;69.33;23.47;;;11.60;99.90;;;;;;5050353;28;20473;-74
2021/11/07 12:27:20;;;;;;;396.97;89.03;;;11.60;99.90;;;;;;5081816;28;20539;-73
2021/11/07 12:29:52;;;;;;;369.23;67.73;;;11.60;99.90;;;;;;5094334;28;20480;-74
2021/11/07 12:32:32;;;;;;;478.57;84.60;;;11.60;99.90;;;;;;5093437;28;20446;-74
2021/11/07 12:35:10;;;;;;;1293.60;181.43;;;11.70;99.90;;;;;;5093510;28;20489;-75
2021/11/07 12:40:52;;;;;;;657.00;121.03;;;11.70;99.90;;;;;;5090644;28;20548;-75
2021/11/07 12:43:33;;;;;;;428.13;72.53;;;11.80;99.90;;;;;;5072782;28;20461;-75
2021/11/07 12:46:17;;;;;;;721.97;113.03;;;11.70;99.90;;;;;;5074189;28;20420;-75
2021/11/07 12:48:47;;;;;;;440.17;56.17;;;11.70;99.90;;;;;;5074371;28;20433;-75
2021/11/07 12:51:18;;;;;;;552.27;90.73;;;11.60;99.90;;;;;;5073639;28;20552;-75
2021/11/07 12:54:04;;;;;;;511.40;88.60;;;11.60;99.90;;;;;;5091748;28;20444;-75
2021/11/07 12:56:48;;;;;;;590.13;98.73;;;11.60;99.90;;;;;;5086305;28;20993;-75
2021/11/07 12:59:19;;;;;;;388.33;56.97;;;11.50;99.90;;;;;;5075482;28;20489;-75
2021/11/07 13:02:09;;;;;;;445.57;68.97;;;11.50;99.90;;;;;;5074613;28;20453;-75
2021/11/07 13:04:45;;;;;;;400.03;92.30;;;11.50;99.90;;;;;;5072627;28;20492;-75
2021/11/07 13:07:20;;;;;;;450.57;76.87;;;11.40;99.90;;;;;;5074038;28;20452;-75
2021/11/07 13:09:56;;;;;;;603.70;71.43;;;11.40;99.90;;;;;;5072495;28;20472;-75
2021/11/07 13:12:28;;;;;;;504.23;94.03;;;11.40;99.90;;;;;;5072322;28;20476;-75
2021/11/07 13:15:23;;;;;;;507.87;54.93;;;11.50;99.90;;;;;;5053682;28;20965;-75
2021/11/07 13:24:09;;;;;;;372.53;58.97;;;11.60;99.90;;;;;;5092505;28;20440;-75
2021/11/07 13:26:58;;;;;;;417.13;73.50;;;11.60;99.90;;;;;;5092470;28;20468;-76
2021/11/07 13:29:31;;;;;;;539.97;79.10;;;11.60;99.90;;;;;;5092409;28;20491;-74
2021/11/07 13:34:58;;;;;;;125.57;41.47;;;11.60;99.90;;;;;;5084014;28;20491;-76
2021/11/07 13:37:31;;;;;;;468.17;87.30;;;11.50;99.90;;;;;;5093872;28;20567;-75
2021/11/07 13:40:10;;;;;;;447.10;97.37;;;11.50;99.90;;;;;;5074457;28;20939;-75
2021/11/07 13:42:41;;;;;;;483.63;61.50;;;11.50;99.90;;;;;;5079458;28;20603;-75
2021/11/07 13:45:12;;;;;;;475.97;77.87;;;11.50;99.90;;;;;;5092172;28;20533;-76